sensor_id;sensor_type;location;lat;lon;timestamp;P1;durP1;ratioP1;P2;durP2;ratioP2
6614;SDS011;3343;42.896;23.912;2022-07-06T00:01:15;6.80;;;6.13;;
6614;SDS011;3343;42.896;23.912;2022-07-06T00:03:43;7.05;;;6.35;;
6614;SDS011;3343;42.896;23.912;2022-07-06T00:06:11;6.63;;;6.00;;
6614;SDS011;3343;42.896;23.912;2022-07-06T00:08:38;9.93;;;6.05;;
6614;SDS011;3343;42.896;23.912;2022-07-06T00:11:06;9.98;;;5.88;;
6614;SDS011;3343;42.896;23.912;2022-07-06T00:13:33;7.50;;;6.03;;
6614;SDS011;3343;42.896;23.912;2022-07-06T00:16:00;9.23;;;6.72;;
6614;SDS011;3343;42.896;23.912;2022-07-06T00:18:27;7.72;;;5.82;;
6614;SDS011;3343;42.896;23.912;2022-07-06T00:20:54;10.13;;;5.85;;
6614;SDS011;3343;42.896;23.912;2022-07-06T00:26:10;8.50;;;6.22;;
6614;SDS011;3343;42.896;23.912;2022-07-06T00:28:37;6.78;;;6.03;;
6614;SDS011;3343;42.896;23.912;2022-07-06T00:31:04;10.07;;;6.50;;
6614;SDS011;3343;42.896;23.912;2022-07-06T00:33:31;10.00;;;6.32;;
6614;SDS011;3343;42.896;23.912;2022-07-06T00:35:59;7.07;;;5.97;;
6614;SDS011;3343;42.896;23.912;2022-07-06T00:38:25;7.22;;;6.43;;
6614;SDS011;3343;42.896;23.912;2022-07-06T00:40:54;8.75;;;6.63;;
6614;SDS011;3343;42.896;23.912;2022-07-06T00:43:21;11.82;;;7.22;;
6614;SDS011;3343;42.896;23.912;2022-07-06T00:45:48;9.95;;;6.70;;
6614;SDS011;3343;42.896;23.912;2022-07-06T00:48:15;9.43;;;7.35;;
6614;SDS011;3343;42.896;23.912;2022-07-06T00:50:42;8.95;;;6.82;;
6614;SDS011;3343;42.896;23.912;2022-07-06T00:53:09;10.27;;;7.65;;
6614;SDS011;3343;42.896;23.912;2022-07-06T00:55:36;13.30;;;7.90;;
6614;SDS011;3343;42.896;23.912;2022-07-06T00:58:07;12.77;;;8.38;;
6614;SDS011;3343;42.896;23.912;2022-07-06T01:00:34;12.65;;;9.38;;
6614;SDS011;3343;42.896;23.912;2022-07-06T01:03:02;14.30;;;9.38;;
6614;SDS011;3343;42.896;23.912;2022-07-06T01:05:29;14.55;;;10.68;;
6614;SDS011;3343;42.896;23.912;2022-07-06T01:07:56;12.55;;;10.13;;
6614;SDS011;3343;42.896;23.912;2022-07-06T01:10:23;12.50;;;9.75;;
6614;SDS011;3343;42.896;23.912;2022-07-06T01:12:59;13.90;;;9.50;;
6614;SDS011;3343;42.896;23.912;2022-07-06T01:15:27;14.75;;;9.75;;
6614;SDS011;3343;42.896;23.912;2022-07-06T01:17:54;11.70;;;9.52;;
6614;SDS011;3343;42.896;23.912;2022-07-06T01:20:23;12.75;;;10.23;;
6614;SDS011;3343;42.896;23.912;2022-07-06T01:22:51;12.15;;;9.77;;
6614;SDS011;3343;42.896;23.912;2022-07-06T01:25:21;11.10;;;9.80;;
6614;SDS011;3343;42.896;23.912;2022-07-06T01:27:47;13.07;;;10.00;;
6614;SDS011;3343;42.896;23.912;2022-07-06T01:30:15;11.75;;;10.02;;
6614;SDS011;3343;42.896;23.912;2022-07-06T01:32:44;10.20;;;8.93;;
6614;SDS011;3343;42.896;23.912;2022-07-06T01:35:13;11.20;;;9.32;;
6614;SDS011;3343;42.896;23.912;2022-07-06T01:37:42;14.93;;;10.48;;
6614;SDS011;3343;42.896;23.912;2022-07-06T01:40:10;15.38;;;10.57;;
6614;SDS011;3343;42.896;23.912;2022-07-06T01:42:38;12.82;;;10.05;;
6614;SDS011;3343;42.896;23.912;2022-07-06T01:45:06;15.98;;;10.10;;
6614;SDS011;3343;42.896;23.912;2022-07-06T01:47:34;12.70;;;10.52;;
6614;SDS011;3343;42.896;23.912;2022-07-06T01:50:01;13.18;;;10.13;;
6614;SDS011;3343;42.896;23.912;2022-07-06T01:52:32;14.57;;;10.27;;
6614;SDS011;3343;42.896;23.912;2022-07-06T01:55:00;12.20;;;10.23;;
6614;SDS011;3343;42.896;23.912;2022-07-06T01:57:27;14.98;;;10.90;;
6614;SDS011;3343;42.896;23.912;2022-07-06T01:59:54;13.65;;;10.70;;
6614;SDS011;3343;42.896;23.912;2022-07-06T02:02:21;11.70;;;10.25;;
6614;SDS011;3343;42.896;23.912;2022-07-06T02:04:47;17.90;;;10.45;;
6614;SDS011;3343;42.896;23.912;2022-07-06T02:07:15;10.98;;;9.88;;
6614;SDS011;3343;42.896;23.912;2022-07-06T02:09:42;12.68;;;10.18;;
6614;SDS011;3343;42.896;23.912;2022-07-06T02:12:10;11.10;;;10.00;;
6614;SDS011;3343;42.896;23.912;2022-07-06T02:14:37;13.48;;;10.05;;
6614;SDS011;3343;42.896;23.912;2022-07-06T02:17:04;12.63;;;10.35;;
6614;SDS011;3343;42.896;23.912;2022-07-06T02:19:31;10.85;;;9.75;;
6614;SDS011;3343;42.896;23.912;2022-07-06T02:21:57;11.20;;;10.00;;
6614;SDS011;3343;42.896;23.912;2022-07-06T02:24:24;10.43;;;9.35;;
6614;SDS011;3343;42.896;23.912;2022-07-06T02:26:51;13.20;;;9.48;;
6614;SDS011;3343;42.896;23.912;2022-07-06T02:29:19;10.68;;;9.57;;
6614;SDS011;3343;42.896;23.912;2022-07-06T02:31:46;13.68;;;9.60;;
6614;SDS011;3343;42.896;23.912;2022-07-06T02:34:13;11.52;;;9.20;;
6614;SDS011;3343;42.896;23.912;2022-07-06T02:36:40;12.63;;;9.65;;
6614;SDS011;3343;42.896;23.912;2022-07-06T02:39:07;13.10;;;8.95;;
6614;SDS011;3343;42.896;23.912;2022-07-06T02:41:34;11.52;;;9.20;;
6614;SDS011;3343;42.896;23.912;2022-07-06T02:44:01;12.95;;;9.40;;
6614;SDS011;3343;42.896;23.912;2022-07-06T02:46:29;10.18;;;8.90;;
6614;SDS011;3343;42.896;23.912;2022-07-06T02:48:56;11.38;;;9.35;;
6614;SDS011;3343;42.896;23.912;2022-07-06T02:51:23;10.82;;;8.88;;
6614;SDS011;3343;42.896;23.912;2022-07-06T02:53:50;9.80;;;8.80;;
6614;SDS011;3343;42.896;23.912;2022-07-06T02:56:17;10.48;;;9.48;;
6614;SDS011;3343;42.896;23.912;2022-07-06T02:58:44;11.65;;;9.07;;
6614;SDS011;3343;42.896;23.912;2022-07-06T03:01:11;11.20;;;9.43;;
6614;SDS011;3343;42.896;23.912;2022-07-06T03:03:39;10.15;;;9.10;;
6614;SDS011;3343;42.896;23.912;2022-07-06T03:06:06;10.50;;;9.25;;
6614;SDS011;3343;42.896;23.912;2022-07-06T03:08:33;13.38;;;10.27;;
6614;SDS011;3343;42.896;23.912;2022-07-06T03:11:00;10.85;;;9.73;;
6614;SDS011;3343;42.896;23.912;2022-07-06T03:13:27;11.00;;;9.60;;
6614;SDS011;3343;42.896;23.912;2022-07-06T03:15:54;11.68;;;9.05;;
6614;SDS011;3343;42.896;23.912;2022-07-06T03:18:21;11.38;;;8.93;;
6614;SDS011;3343;42.896;23.912;2022-07-06T03:20:50;13.57;;;9.93;;
6614;SDS011;3343;42.896;23.912;2022-07-06T03:23:16;15.82;;;9.93;;
6614;SDS011;3343;42.896;23.912;2022-07-06T03:25:43;11.75;;;9.57;;
6614;SDS011;3343;42.896;23.912;2022-07-06T03:28:10;10.98;;;9.10;;
6614;SDS011;3343;42.896;23.912;2022-07-06T03:30:37;11.25;;;9.20;;
6614;SDS011;3343;42.896;23.912;2022-07-06T03:33:06;11.25;;;9.77;;
6614;SDS011;3343;42.896;23.912;2022-07-06T03:35:33;11.80;;;9.95;;
6614;SDS011;3343;42.896;23.912;2022-07-06T03:38:01;10.30;;;9.20;;
6614;SDS011;3343;42.896;23.912;2022-07-06T03:40:29;12.15;;;9.52;;
6614;SDS011;3343;42.896;23.912;2022-07-06T03:42:56;12.32;;;10.25;;
6614;SDS011;3343;42.896;23.912;2022-07-06T03:45:23;15.02;;;10.48;;
6614;SDS011;3343;42.896;23.912;2022-07-06T03:47:50;11.75;;;9.10;;
6614;SDS011;3343;42.896;23.912;2022-07-06T03:50:17;16.80;;;9.73;;
6614;SDS011;3343;42.896;23.912;2022-07-06T03:52:43;10.63;;;9.50;;
6614;SDS011;3343;42.896;23.912;2022-07-06T03:55:12;13.40;;;9.82;;
6614;SDS011;3343;42.896;23.912;2022-07-06T03:57:39;12.40;;;10.20;;
6614;SDS011;3343;42.896;23.912;2022-07-06T04:00:06;14.13;;;9.77;;
6614;SDS011;3343;42.896;23.912;2022-07-06T04:02:35;12.60;;;10.52;;
6614;SDS011;3343;42.896;23.912;2022-07-06T04:05:02;15.07;;;10.30;;
6614;SDS011;3343;42.896;23.912;2022-07-06T04:07:29;11.68;;;10.48;;
6614;SDS011;3343;42.896;23.912;2022-07-06T04:09:56;14.85;;;10.10;;
6614;SDS011;3343;42.896;23.912;2022-07-06T04:12:24;13.32;;;11.07;;
6614;SDS011;3343;42.896;23.912;2022-07-06T04:14:51;15.05;;;10.27;;
6614;SDS011;3343;42.896;23.912;2022-07-06T04:17:18;13.27;;;10.05;;
6614;SDS011;3343;42.896;23.912;2022-07-06T04:20:02;11.73;;;10.30;;
6614;SDS011;3343;42.896;23.912;2022-07-06T04:22:30;13.35;;;10.27;;
6614;SDS011;3343;42.896;23.912;2022-07-06T04:24:56;11.50;;;9.90;;
6614;SDS011;3343;42.896;23.912;2022-07-06T04:27:27;10.57;;;9.55;;
6614;SDS011;3343;42.896;23.912;2022-07-06T04:29:54;13.27;;;9.98;;
6614;SDS011;3343;42.896;23.912;2022-07-06T04:32:21;12.95;;;10.02;;
6614;SDS011;3343;42.896;23.912;2022-07-06T04:34:48;13.38;;;10.48;;
6614;SDS011;3343;42.896;23.912;2022-07-06T04:37:16;11.02;;;9.88;;
6614;SDS011;3343;42.896;23.912;2022-07-06T04:39:42;15.10;;;9.35;;
6614;SDS011;3343;42.896;23.912;2022-07-06T04:42:09;13.90;;;10.65;;
6614;SDS011;3343;42.896;23.912;2022-07-06T04:44:37;12.27;;;9.95;;
6614;SDS011;3343;42.896;23.912;2022-07-06T04:47:04;11.43;;;9.82;;
6614;SDS011;3343;42.896;23.912;2022-07-06T04:49:32;10.90;;;9.73;;
6614;SDS011;3343;42.896;23.912;2022-07-06T04:51:58;10.90;;;9.80;;
6614;SDS011;3343;42.896;23.912;2022-07-06T04:54:25;11.57;;;10.15;;
6614;SDS011;3343;42.896;23.912;2022-07-06T04:56:52;10.77;;;9.40;;
6614;SDS011;3343;42.896;23.912;2022-07-06T04:59:19;12.98;;;10.07;;
6614;SDS011;3343;42.896;23.912;2022-07-06T05:01:47;10.23;;;9.23;;
6614;SDS011;3343;42.896;23.912;2022-07-06T05:04:14;13.55;;;10.25;;
6614;SDS011;3343;42.896;23.912;2022-07-06T05:06:43;11.50;;;9.05;;
6614;SDS011;3343;42.896;23.912;2022-07-06T05:09:11;12.43;;;9.55;;
6614;SDS011;3343;42.896;23.912;2022-07-06T05:11:38;12.25;;;9.82;;
6614;SDS011;3343;42.896;23.912;2022-07-06T05:14:05;13.65;;;9.90;;
6614;SDS011;3343;42.896;23.912;2022-07-06T05:16:41;10.63;;;9.63;;
6614;SDS011;3343;42.896;23.912;2022-07-06T05:19:09;15.50;;;9.77;;
6614;SDS011;3343;42.896;23.912;2022-07-06T05:21:36;13.20;;;9.40;;
6614;SDS011;3343;42.896;23.912;2022-07-06T05:24:05;14.73;;;9.25;;
6614;SDS011;3343;42.896;23.912;2022-07-06T05:26:32;12.43;;;8.98;;
6614;SDS011;3343;42.896;23.912;2022-07-06T05:28:59;11.55;;;9.15;;
6614;SDS011;3343;42.896;23.912;2022-07-06T05:31:26;10.65;;;9.32;;
6614;SDS011;3343;42.896;23.912;2022-07-06T05:33:52;12.07;;;9.50;;
6614;SDS011;3343;42.896;23.912;2022-07-06T05:36:21;9.90;;;8.90;;
6614;SDS011;3343;42.896;23.912;2022-07-06T05:38:47;11.43;;;8.82;;
6614;SDS011;3343;42.896;23.912;2022-07-06T05:41:15;8.85;;;7.90;;
6614;SDS011;3343;42.896;23.912;2022-07-06T05:43:42;10.90;;;7.80;;
6614;SDS011;3343;42.896;23.912;2022-07-06T05:46:09;12.23;;;7.82;;
6614;SDS011;3343;42.896;23.912;2022-07-06T05:48:36;14.02;;;8.40;;
6614;SDS011;3343;42.896;23.912;2022-07-06T05:51:21;9.88;;;7.70;;
6614;SDS011;3343;42.896;23.912;2022-07-06T05:53:48;11.05;;;7.70;;
6614;SDS011;3343;42.896;23.912;2022-07-06T05:56:17;9.68;;;8.68;;
6614;SDS011;3343;42.896;23.912;2022-07-06T05:58:45;11.00;;;8.52;;
6614;SDS011;3343;42.896;23.912;2022-07-06T06:01:12;13.13;;;10.10;;
6614;SDS011;3343;42.896;23.912;2022-07-06T06:03:39;10.85;;;9.32;;
6614;SDS011;3343;42.896;23.912;2022-07-06T06:06:07;13.15;;;10.40;;
6614;SDS011;3343;42.896;23.912;2022-07-06T06:08:36;14.98;;;11.45;;
6614;SDS011;3343;42.896;23.912;2022-07-06T06:11:03;17.25;;;11.27;;
6614;SDS011;3343;42.896;23.912;2022-07-06T06:13:30;15.13;;;11.98;;
6614;SDS011;3343;42.896;23.912;2022-07-06T06:15:57;16.10;;;11.30;;
6614;SDS011;3343;42.896;23.912;2022-07-06T06:18:24;13.23;;;11.63;;
6614;SDS011;3343;42.896;23.912;2022-07-06T06:20:50;14.52;;;11.18;;
6614;SDS011;3343;42.896;23.912;2022-07-06T06:23:18;12.88;;;11.57;;
6614;SDS011;3343;42.896;23.912;2022-07-06T06:25:46;21.73;;;12.80;;
6614;SDS011;3343;42.896;23.912;2022-07-06T06:28:13;14.88;;;11.20;;
6614;SDS011;3343;42.896;23.912;2022-07-06T06:30:40;14.70;;;11.52;;
6614;SDS011;3343;42.896;23.912;2022-07-06T06:33:07;13.77;;;11.60;;
6614;SDS011;3343;42.896;23.912;2022-07-06T06:35:36;14.52;;;11.10;;
6614;SDS011;3343;42.896;23.912;2022-07-06T06:38:04;12.40;;;10.50;;
6614;SDS011;3343;42.896;23.912;2022-07-06T06:40:30;14.25;;;11.18;;
6614;SDS011;3343;42.896;23.912;2022-07-06T06:42:59;12.10;;;10.60;;
6614;SDS011;3343;42.896;23.912;2022-07-06T06:45:26;16.80;;;11.20;;
6614;SDS011;3343;42.896;23.912;2022-07-06T06:47:53;12.90;;;10.40;;
6614;SDS011;3343;42.896;23.912;2022-07-06T06:50:20;14.48;;;10.90;;
6614;SDS011;3343;42.896;23.912;2022-07-06T06:52:48;10.73;;;9.43;;
6614;SDS011;3343;42.896;23.912;2022-07-06T06:57:45;13.40;;;10.18;;
6614;SDS011;3343;42.896;23.912;2022-07-06T07:00:14;12.27;;;9.98;;
6614;SDS011;3343;42.896;23.912;2022-07-06T07:02:41;11.73;;;8.80;;
6614;SDS011;3343;42.896;23.912;2022-07-06T07:05:08;15.57;;;9.45;;
6614;SDS011;3343;42.896;23.912;2022-07-06T07:07:35;9.85;;;8.20;;
6614;SDS011;3343;42.896;23.912;2022-07-06T07:10:03;11.05;;;8.55;;
6614;SDS011;3343;42.896;23.912;2022-07-06T07:12:30;10.18;;;8.82;;
6614;SDS011;3343;42.896;23.912;2022-07-06T07:14:58;10.73;;;8.80;;
6614;SDS011;3343;42.896;23.912;2022-07-06T07:17:26;11.60;;;8.23;;
6614;SDS011;3343;42.896;23.912;2022-07-06T07:19:53;10.10;;;8.07;;
6614;SDS011;3343;42.896;23.912;2022-07-06T07:22:22;10.50;;;8.63;;
6614;SDS011;3343;42.896;23.912;2022-07-06T07:24:49;10.23;;;8.07;;
6614;SDS011;3343;42.896;23.912;2022-07-06T07:27:16;8.77;;;7.10;;
6614;SDS011;3343;42.896;23.912;2022-07-06T07:29:43;11.93;;;7.90;;
6614;SDS011;3343;42.896;23.912;2022-07-06T07:32:10;9.02;;;7.22;;
6614;SDS011;3343;42.896;23.912;2022-07-06T07:34:38;8.48;;;6.28;;
6614;SDS011;3343;42.896;23.912;2022-07-06T07:37:05;12.73;;;6.85;;
6614;SDS011;3343;42.896;23.912;2022-07-06T07:39:31;8.77;;;6.75;;
6614;SDS011;3343;42.896;23.912;2022-07-06T07:41:59;8.30;;;6.68;;
6614;SDS011;3343;42.896;23.912;2022-07-06T07:44:25;8.93;;;6.50;;
6614;SDS011;3343;42.896;23.912;2022-07-06T07:46:52;9.00;;;6.90;;
6614;SDS011;3343;42.896;23.912;2022-07-06T07:49:19;10.18;;;7.10;;
6614;SDS011;3343;42.896;23.912;2022-07-06T07:51:48;9.73;;;6.95;;
6614;SDS011;3343;42.896;23.912;2022-07-06T07:54:15;12.20;;;6.88;;
6614;SDS011;3343;42.896;23.912;2022-07-06T07:56:42;8.20;;;6.72;;
6614;SDS011;3343;42.896;23.912;2022-07-06T07:59:10;9.05;;;6.85;;
6614;SDS011;3343;42.896;23.912;2022-07-06T08:01:36;7.82;;;6.80;;
6614;SDS011;3343;42.896;23.912;2022-07-06T08:04:04;9.40;;;6.88;;
6614;SDS011;3343;42.896;23.912;2022-07-06T08:06:30;7.97;;;6.47;;
6614;SDS011;3343;42.896;23.912;2022-07-06T08:08:59;8.65;;;6.80;;
6614;SDS011;3343;42.896;23.912;2022-07-06T08:11:29;9.63;;;6.85;;
6614;SDS011;3343;42.896;23.912;2022-07-06T08:13:56;11.77;;;6.70;;
6614;SDS011;3343;42.896;23.912;2022-07-06T08:16:23;9.25;;;6.88;;
6614;SDS011;3343;42.896;23.912;2022-07-06T08:18:50;9.32;;;7.03;;
6614;SDS011;3343;42.896;23.912;2022-07-06T08:21:17;7.45;;;6.65;;
6614;SDS011;3343;42.896;23.912;2022-07-06T08:23:44;9.27;;;6.85;;
6614;SDS011;3343;42.896;23.912;2022-07-06T08:26:12;8.48;;;7.38;;
6614;SDS011;3343;42.896;23.912;2022-07-06T08:28:39;8.02;;;7.03;;
6614;SDS011;3343;42.896;23.912;2022-07-06T08:31:06;7.32;;;5.70;;
6614;SDS011;3343;42.896;23.912;2022-07-06T08:36:08;8.38;;;5.43;;
6614;SDS011;3343;42.896;23.912;2022-07-06T08:38:35;8.02;;;5.43;;
6614;SDS011;3343;42.896;23.912;2022-07-06T08:41:02;5.95;;;5.25;;
6614;SDS011;3343;42.896;23.912;2022-07-06T08:43:33;7.10;;;5.43;;
6614;SDS011;3343;42.896;23.912;2022-07-06T08:46:01;6.47;;;5.60;;
6614;SDS011;3343;42.896;23.912;2022-07-06T08:48:28;7.45;;;5.68;;
6614;SDS011;3343;42.896;23.912;2022-07-06T08:51:01;7.82;;;5.72;;
6614;SDS011;3343;42.896;23.912;2022-07-06T08:53:29;9.63;;;5.50;;
6614;SDS011;3343;42.896;23.912;2022-07-06T08:55:56;6.20;;;5.40;;
6614;SDS011;3343;42.896;23.912;2022-07-06T08:58:23;8.50;;;5.60;;
6614;SDS011;3343;42.896;23.912;2022-07-06T09:00:52;7.13;;;5.10;;
6614;SDS011;3343;42.896;23.912;2022-07-06T09:03:20;7.25;;;5.78;;
6614;SDS011;3343;42.896;23.912;2022-07-06T09:05:48;6.95;;;5.68;;
6614;SDS011;3343;42.896;23.912;2022-07-06T09:08:17;6.38;;;4.82;;
6614;SDS011;3343;42.896;23.912;2022-07-06T09:10:45;5.60;;;4.97;;
6614;SDS011;3343;42.896;23.912;2022-07-06T09:13:12;6.72;;;5.22;;
6614;SDS011;3343;42.896;23.912;2022-07-06T09:15:38;7.40;;;5.30;;
6614;SDS011;3343;42.896;23.912;2022-07-06T09:18:07;6.72;;;4.75;;
6614;SDS011;3343;42.896;23.912;2022-07-06T09:20:34;5.10;;;4.60;;
6614;SDS011;3343;42.896;23.912;2022-07-06T09:23:02;5.00;;;4.50;;
6614;SDS011;3343;42.896;23.912;2022-07-06T09:25:31;7.57;;;4.20;;
6614;SDS011;3343;42.896;23.912;2022-07-06T09:28:00;7.63;;;5.45;;
6614;SDS011;3343;42.896;23.912;2022-07-06T09:30:28;7.70;;;5.03;;
6614;SDS011;3343;42.896;23.912;2022-07-06T09:32:56;7.30;;;5.75;;
6614;SDS011;3343;42.896;23.912;2022-07-06T09:35:25;6.38;;;5.45;;
6614;SDS011;3343;42.896;23.912;2022-07-06T09:38:00;7.43;;;5.80;;
6614;SDS011;3343;42.896;23.912;2022-07-06T09:40:29;8.23;;;6.32;;
6614;SDS011;3343;42.896;23.912;2022-07-06T09:43:07;8.77;;;6.30;;
6614;SDS011;3343;42.896;23.912;2022-07-06T09:45:34;9.82;;;7.25;;
6614;SDS011;3343;42.896;23.912;2022-07-06T09:48:05;9.52;;;7.55;;
6614;SDS011;3343;42.896;23.912;2022-07-06T09:50:39;6.68;;;5.90;;
6614;SDS011;3343;42.896;23.912;2022-07-06T09:53:07;8.05;;;6.28;;
6614;SDS011;3343;42.896;23.912;2022-07-06T09:55:34;8.88;;;6.50;;
6614;SDS011;3343;42.896;23.912;2022-07-06T09:58:01;12.13;;;6.53;;
6614;SDS011;3343;42.896;23.912;2022-07-06T10:00:28;7.93;;;5.70;;
6614;SDS011;3343;42.896;23.912;2022-07-06T10:02:55;8.93;;;5.75;;
6614;SDS011;3343;42.896;23.912;2022-07-06T10:05:23;6.28;;;5.68;;
6614;SDS011;3343;42.896;23.912;2022-07-06T10:07:56;8.50;;;5.88;;
6614;SDS011;3343;42.896;23.912;2022-07-06T10:10:25;6.57;;;5.97;;
6614;SDS011;3343;42.896;23.912;2022-07-06T10:15:24;7.20;;;6.20;;
6614;SDS011;3343;42.896;23.912;2022-07-06T10:17:53;8.25;;;6.40;;
6614;SDS011;3343;42.896;23.912;2022-07-06T10:20:21;6.70;;;5.97;;
6614;SDS011;3343;42.896;23.912;2022-07-06T10:22:48;7.10;;;6.40;;
6614;SDS011;3343;42.896;23.912;2022-07-06T10:25:18;7.90;;;5.95;;
6614;SDS011;3343;42.896;23.912;2022-07-06T10:27:46;7.40;;;5.95;;
6614;SDS011;3343;42.896;23.912;2022-07-06T10:30:14;7.55;;;6.05;;
6614;SDS011;3343;42.896;23.912;2022-07-06T10:32:42;6.63;;;6.03;;
6614;SDS011;3343;42.896;23.912;2022-07-06T10:35:11;5.88;;;5.28;;
6614;SDS011;3343;42.896;23.912;2022-07-06T10:37:39;7.38;;;6.68;;
6614;SDS011;3343;42.896;23.912;2022-07-06T10:40:07;6.97;;;6.28;;
6614;SDS011;3343;42.896;23.912;2022-07-06T10:42:57;8.95;;;6.10;;
6614;SDS011;3343;42.896;23.912;2022-07-06T10:48:16;11.73;;;8.25;;
6614;SDS011;3343;42.896;23.912;2022-07-06T10:50:46;9.85;;;7.65;;
6614;SDS011;3343;42.896;23.912;2022-07-06T10:53:15;7.95;;;7.15;;
6614;SDS011;3343;42.896;23.912;2022-07-06T10:55:43;9.93;;;6.97;;
6614;SDS011;3343;42.896;23.912;2022-07-06T10:58:12;12.82;;;7.05;;
6614;SDS011;3343;42.896;23.912;2022-07-06T11:00:50;9.27;;;7.65;;
6614;SDS011;3343;42.896;23.912;2022-07-06T11:03:29;11.02;;;8.48;;
6614;SDS011;3343;42.896;23.912;2022-07-06T11:05:58;9.60;;;8.40;;
6614;SDS011;3343;42.896;23.912;2022-07-06T11:08:40;11.75;;;7.93;;
6614;SDS011;3343;42.896;23.912;2022-07-06T11:11:18;9.00;;;7.45;;
6614;SDS011;3343;42.896;23.912;2022-07-06T11:13:51;8.15;;;7.35;;
6614;SDS011;3343;42.896;23.912;2022-07-06T11:16:23;11.45;;;8.73;;
6614;SDS011;3343;42.896;23.912;2022-07-06T11:19:02;10.93;;;8.77;;
6614;SDS011;3343;42.896;23.912;2022-07-06T11:21:35;10.90;;;7.90;;
6614;SDS011;3343;42.896;23.912;2022-07-06T11:24:04;12.50;;;9.07;;
6614;SDS011;3343;42.896;23.912;2022-07-06T11:26:33;12.88;;;9.65;;
6614;SDS011;3343;42.896;23.912;2022-07-06T11:29:03;10.32;;;8.98;;
6614;SDS011;3343;42.896;23.912;2022-07-06T11:31:35;11.18;;;8.35;;
6614;SDS011;3343;42.896;23.912;2022-07-06T11:34:03;9.75;;;7.82;;
6614;SDS011;3343;42.896;23.912;2022-07-06T11:36:30;14.18;;;8.13;;
6614;SDS011;3343;42.896;23.912;2022-07-06T11:38:57;10.77;;;7.80;;
6614;SDS011;3343;42.896;23.912;2022-07-06T11:41:24;9.02;;;8.00;;
6614;SDS011;3343;42.896;23.912;2022-07-06T11:43:52;9.45;;;8.50;;
6614;SDS011;3343;42.896;23.912;2022-07-06T11:46:20;9.38;;;8.43;;
6614;SDS011;3343;42.896;23.912;2022-07-06T11:48:52;9.02;;;8.07;;
6614;SDS011;3343;42.896;23.912;2022-07-06T11:51:20;9.15;;;7.82;;
6614;SDS011;3343;42.896;23.912;2022-07-06T11:53:49;9.32;;;8.35;;
6614;SDS011;3343;42.896;23.912;2022-07-06T11:56:17;9.88;;;8.68;;
6614;SDS011;3343;42.896;23.912;2022-07-06T11:58:48;9.57;;;8.02;;
6614;SDS011;3343;42.896;23.912;2022-07-06T12:01:16;11.10;;;8.55;;
6614;SDS011;3343;42.896;23.912;2022-07-06T12:03:44;10.52;;;9.23;;
6614;SDS011;3343;42.896;23.912;2022-07-06T12:06:13;9.63;;;7.90;;
6614;SDS011;3343;42.896;23.912;2022-07-06T12:08:42;10.85;;;9.15;;
6614;SDS011;3343;42.896;23.912;2022-07-06T12:11:11;10.10;;;8.77;;
6614;SDS011;3343;42.896;23.912;2022-07-06T12:13:44;12.05;;;8.98;;
6614;SDS011;3343;42.896;23.912;2022-07-06T12:16:12;12.40;;;8.50;;
6614;SDS011;3343;42.896;23.912;2022-07-06T12:18:42;10.10;;;8.95;;
6614;SDS011;3343;42.896;23.912;2022-07-06T12:21:12;10.35;;;8.70;;
6614;SDS011;3343;42.896;23.912;2022-07-06T12:23:42;10.00;;;9.00;;
6614;SDS011;3343;42.896;23.912;2022-07-06T12:26:11;10.65;;;9.55;;
6614;SDS011;3343;42.896;23.912;2022-07-06T12:28:39;9.82;;;8.80;;
6614;SDS011;3343;42.896;23.912;2022-07-06T12:31:07;11.23;;;9.30;;
6614;SDS011;3343;42.896;23.912;2022-07-06T12:33:34;10.73;;;9.32;;
6614;SDS011;3343;42.896;23.912;2022-07-06T12:36:13;12.50;;;9.07;;
6614;SDS011;3343;42.896;23.912;2022-07-06T12:41:36;9.65;;;8.30;;
6614;SDS011;3343;42.896;23.912;2022-07-06T12:44:04;9.93;;;8.82;;
6614;SDS011;3343;42.896;23.912;2022-07-06T12:46:34;10.27;;;8.02;;
6614;SDS011;3343;42.896;23.912;2022-07-06T12:49:03;11.45;;;9.05;;
6614;SDS011;3343;42.896;23.912;2022-07-06T12:51:57;12.30;;;8.25;;
6614;SDS011;3343;42.896;23.912;2022-07-06T12:54:27;11.30;;;8.35;;
6614;SDS011;3343;42.896;23.912;2022-07-06T12:57:06;9.85;;;8.73;;
6614;SDS011;3343;42.896;23.912;2022-07-06T12:59:39;20.90;;;8.98;;
6614;SDS011;3343;42.896;23.912;2022-07-06T13:02:09;9.15;;;8.25;;
6614;SDS011;3343;42.896;23.912;2022-07-06T13:04:43;10.02;;;8.75;;
6614;SDS011;3343;42.896;23.912;2022-07-06T13:07:18;10.63;;;8.35;;
6614;SDS011;3343;42.896;23.912;2022-07-06T13:09:45;10.77;;;9.68;;
6614;SDS011;3343;42.896;23.912;2022-07-06T13:12:12;11.93;;;10.73;;
6614;SDS011;3343;42.896;23.912;2022-07-06T13:14:39;11.32;;;9.80;;
6614;SDS011;3343;42.896;23.912;2022-07-06T13:17:07;10.10;;;9.10;;
6614;SDS011;3343;42.896;23.912;2022-07-06T13:19:34;14.45;;;9.93;;
6614;SDS011;3343;42.896;23.912;2022-07-06T13:22:01;11.30;;;9.85;;
6614;SDS011;3343;42.896;23.912;2022-07-06T13:24:29;10.68;;;9.45;;
6614;SDS011;3343;42.896;23.912;2022-07-06T13:26:56;11.05;;;9.95;;
6614;SDS011;3343;42.896;23.912;2022-07-06T13:29:23;12.98;;;10.93;;
6614;SDS011;3343;42.896;23.912;2022-07-06T13:31:50;13.93;;;11.05;;
6614;SDS011;3343;42.896;23.912;2022-07-06T13:34:17;12.82;;;10.65;;
6614;SDS011;3343;42.896;23.912;2022-07-06T13:36:44;15.52;;;11.32;;
6614;SDS011;3343;42.896;23.912;2022-07-06T13:39:11;12.75;;;10.80;;
6614;SDS011;3343;42.896;23.912;2022-07-06T13:41:39;13.88;;;10.27;;
6614;SDS011;3343;42.896;23.912;2022-07-06T13:44:06;12.27;;;10.55;;
6614;SDS011;3343;42.896;23.912;2022-07-06T13:46:35;12.07;;;10.48;;
6614;SDS011;3343;42.896;23.912;2022-07-06T13:49:03;12.73;;;11.43;;
6614;SDS011;3343;42.896;23.912;2022-07-06T13:51:30;14.57;;;13.07;;
6614;SDS011;3343;42.896;23.912;2022-07-06T13:53:58;14.18;;;12.68;;
6614;SDS011;3343;42.896;23.912;2022-07-06T13:56:25;14.43;;;12.93;;
6614;SDS011;3343;42.896;23.912;2022-07-06T13:58:54;16.88;;;13.48;;
6614;SDS011;3343;42.896;23.912;2022-07-06T14:01:21;19.85;;;15.25;;
6614;SDS011;3343;42.896;23.912;2022-07-06T14:03:48;16.73;;;14.48;;
6614;SDS011;3343;42.896;23.912;2022-07-06T14:06:15;19.38;;;15.32;;
6614;SDS011;3343;42.896;23.912;2022-07-06T14:08:43;17.05;;;15.25;;
6614;SDS011;3343;42.896;23.912;2022-07-06T14:11:10;18.25;;;14.93;;
6614;SDS011;3343;42.896;23.912;2022-07-06T14:13:37;17.27;;;15.35;;
6614;SDS011;3343;42.896;23.912;2022-07-06T14:16:06;16.33;;;14.63;;
6614;SDS011;3343;42.896;23.912;2022-07-06T14:18:33;16.58;;;14.82;;
6614;SDS011;3343;42.896;23.912;2022-07-06T14:21:00;16.80;;;14.70;;
6614;SDS011;3343;42.896;23.912;2022-07-06T14:23:28;15.82;;;13.93;;
6614;SDS011;3343;42.896;23.912;2022-07-06T14:25:55;15.52;;;13.93;;
6614;SDS011;3343;42.896;23.912;2022-07-06T14:28:24;14.63;;;13.23;;
6614;SDS011;3343;42.896;23.912;2022-07-06T14:30:51;15.38;;;13.88;;
6614;SDS011;3343;42.896;23.912;2022-07-06T14:33:19;15.15;;;13.55;;
6614;SDS011;3343;42.896;23.912;2022-07-06T14:35:47;16.13;;;12.90;;
6614;SDS011;3343;42.896;23.912;2022-07-06T14:38:16;14.98;;;13.45;;
6614;SDS011;3343;42.896;23.912;2022-07-06T14:40:44;14.52;;;12.55;;
6614;SDS011;3343;42.896;23.912;2022-07-06T14:43:13;16.38;;;13.85;;
6614;SDS011;3343;42.896;23.912;2022-07-06T14:45:40;17.83;;;14.05;;
6614;SDS011;3343;42.896;23.912;2022-07-06T14:48:09;13.55;;;12.25;;
6614;SDS011;3343;42.896;23.912;2022-07-06T14:50:37;15.25;;;13.68;;
6614;SDS011;3343;42.896;23.912;2022-07-06T14:53:04;13.95;;;12.55;;
6614;SDS011;3343;42.896;23.912;2022-07-06T14:55:31;19.23;;;14.00;;
6614;SDS011;3343;42.896;23.912;2022-07-06T14:57:57;15.13;;;13.63;;
6614;SDS011;3343;42.896;23.912;2022-07-06T15:00:24;15.48;;;13.90;;
6614;SDS011;3343;42.896;23.912;2022-07-06T15:02:51;15.35;;;13.70;;
6614;SDS011;3343;42.896;23.912;2022-07-06T15:05:18;15.20;;;13.57;;
6614;SDS011;3343;42.896;23.912;2022-07-06T15:07:47;13.00;;;11.68;;
6614;SDS011;3343;42.896;23.912;2022-07-06T15:10:14;13.00;;;11.75;;